sensor_id;sensor_type;location;lat;lon;timestamp;temperature;humidity
27559;DHT22;15002;52.028;5.670;2022-12-29T00:01:48;13.60;99.90
27559;DHT22;15002;52.028;5.670;2022-12-29T00:04:14;13.60;99.90
27559;DHT22;15002;52.028;5.670;2022-12-29T00:06:41;13.60;99.90
27559;DHT22;15002;52.028;5.670;2022-12-29T00:09:07;13.70;99.90
27559;DHT22;15002;52.028;5.670;2022-12-29T00:11:32;13.70;99.90
27559;DHT22;15002;52.028;5.670;2022-12-29T00:13:58;13.80;99.90
27559;DHT22;15002;52.028;5.670;2022-12-29T00:16:44;13.60;99.90
27559;DHT22;15002;52.028;5.670;2022-12-29T00:19:11;13.70;99.90
27559;DHT22;15002;52.028;5.670;2022-12-29T00:21:58;13.90;99.90
27559;DHT22;15002;52.028;5.670;2022-12-29T00:24:43;13.90;99.90
27559;DHT22;15002;52.028;5.670;2022-12-29T00:27:31;13.90;99.90
27559;DHT22;15002;52.028;5.670;2022-12-29T00:30:19;13.90;99.90
27559;DHT22;15002;52.028;5.670;2022-12-29T00:33:15;13.90;99.90
27559;DHT22;15002;52.028;5.670;2022-12-29T00:36:18;13.80;99.90
27559;DHT22;15002;52.028;5.670;2022-12-29T00:39:07;13.90;99.90
27559;DHT22;15002;52.028;5.670;2022-12-29T00:41:53;13.80;99.90
27559;DHT22;15002;52.028;5.670;2022-12-29T00:44:37;13.80;99.90
27559;DHT22;15002;52.028;5.670;2022-12-29T00:47:03;14.00;99.90
27559;DHT22;15002;52.028;5.670;2022-12-29T00:49:30;14.10;99.90
27559;DHT22;15002;52.028;5.670;2022-12-29T00:54:25;14.00;99.90
27559;DHT22;15002;52.028;5.670;2022-12-29T00:56:52;14.00;99.90
27559;DHT22;15002;52.028;5.670;2022-12-29T00:59:18;13.90;99.90
27559;DHT22;15002;52.028;5.670;2022-12-29T01:01:45;14.00;99.90
27559;DHT22;15002;52.028;5.670;2022-12-29T01:04:11;14.00;99.90
27559;DHT22;15002;52.028;5.670;2022-12-29T01:06:38;13.90;99.90
27559;DHT22;15002;52.028;5.670;2022-12-29T01:09:05;13.90;99.90
27559;DHT22;15002;52.028;5.670;2022-12-29T01:11:50;13.80;99.90
27559;DHT22;15002;52.028;5.670;2022-12-29T01:14:16;13.80;99.90
27559;DHT22;15002;52.028;5.670;2022-12-29T01:16:42;13.70;99.90
27559;DHT22;15002;52.028;5.670;2022-12-29T01:19:08;13.80;99.90
27559;DHT22;15002;52.028;5.670;2022-12-29T01:21:34;13.70;99.90
27559;DHT22;15002;52.028;5.670;2022-12-29T01:23:59;13.70;99.90
27559;DHT22;15002;52.028;5.670;2022-12-29T01:26:25;13.70;99.90
27559;DHT22;15002;52.028;5.670;2022-12-29T01:28:50;13.80;99.90
27559;DHT22;15002;52.028;5.670;2022-12-29T01:31:16;13.70;99.90
27559;DHT22;15002;52.028;5.670;2022-12-29T01:33:42;13.60;99.90
27559;DHT22;15002;52.028;5.670;2022-12-29T01:36:16;13.80;99.90
27559;DHT22;15002;52.028;5.670;2022-12-29T01:38:42;13.80;99.90
27559;DHT22;15002;52.028;5.670;2022-12-29T01:41:09;13.70;99.90
27559;DHT22;15002;52.028;5.670;2022-12-29T01:43:43;13.70;99.90
27559;DHT22;15002;52.028;5.670;2022-12-29T01:46:33;13.70;99.90
27559;DHT22;15002;52.028;5.670;2022-12-29T01:49:24;13.50;99.90
27559;DHT22;15002;52.028;5.670;2022-12-29T01:51:55;13.50;99.90
27559;DHT22;15002;52.028;5.670;2022-12-29T01:54:31;13.60;99.90
27559;DHT22;15002;52.028;5.670;2022-12-29T01:57:01;13.60;99.90
27559;DHT22;15002;52.028;5.670;2022-12-29T01:59:31;13.40;99.90
27559;DHT22;15002;52.028;5.670;2022-12-29T02:01:58;13.40;99.90
27559;DHT22;15002;52.028;5.670;2022-12-29T02:04:25;13.50;99.90
27559;DHT22;15002;52.028;5.670;2022-12-29T02:06:57;13.40;99.90
27559;DHT22;15002;52.028;5.670;2022-12-29T02:09:23;13.20;99.90
27559;DHT22;15002;52.028;5.670;2022-12-29T02:11:50;13.30;99.90
27559;DHT22;15002;52.028;5.670;2022-12-29T02:14:16;13.40;99.90
27559;DHT22;15002;52.028;5.670;2022-12-29T02:30:35;13.30;99.90
27559;DHT22;15002;52.028;5.670;2022-12-29T02:33:31;13.20;99.90
27559;DHT22;15002;52.028;5.670;2022-12-29T02:41:38;13.20;99.90
27559;DHT22;15002;52.028;5.670;2022-12-29T02:45:04;13.10;99.90
27559;DHT22;15002;52.028;5.670;2022-12-29T02:47:14;13.00;99.90
27559;DHT22;15002;52.028;5.670;2022-12-29T02:50:19;12.80;99.90
27559;DHT22;15002;52.028;5.670;2022-12-29T02:52:59;12.80;99.90
27559;DHT22;15002;52.028;5.670;2022-12-29T02:55:26;12.90;99.90
27559;DHT22;15002;52.028;5.670;2022-12-29T03:00:58;13.00;99.90
27559;DHT22;15002;52.028;5.670;2022-12-29T03:03:53;13.10;99.90
27559;DHT22;15002;52.028;5.670;2022-12-29T03:09:20;13.00;99.90
27559;DHT22;15002;52.028;5.670;2022-12-29T03:15:04;13.20;99.90
27559;DHT22;15002;52.028;5.670;2022-12-29T03:18:06;13.20;99.90
27559;DHT22;15002;52.028;5.670;2022-12-29T03:20:55;13.20;99.90
27559;DHT22;15002;52.028;5.670;2022-12-29T03:23:24;12.80;99.90
27559;DHT22;15002;52.028;5.670;2022-12-29T03:25:56;12.90;99.90
27559;DHT22;15002;52.028;5.670;2022-12-29T03:28:33;12.90;99.90
27559;DHT22;15002;52.028;5.670;2022-12-29T03:31:03;13.00;99.90
27559;DHT22;15002;52.028;5.670;2022-12-29T03:33:30;13.10;99.90
27559;DHT22;15002;52.028;5.670;2022-12-29T03:35:59;13.10;99.90
27559;DHT22;15002;52.028;5.670;2022-12-29T03:38:53;12.90;99.90
27559;DHT22;15002;52.028;5.670;2022-12-29T03:41:25;13.00;99.90
27559;DHT22;15002;52.028;5.670;2022-12-29T03:43:51;13.20;99.90
27559;DHT22;15002;52.028;5.670;2022-12-29T03:46:17;13.30;99.90
27559;DHT22;15002;52.028;5.670;2022-12-29T03:48:42;13.20;99.90
27559;DHT22;15002;52.028;5.670;2022-12-29T03:51:08;13.30;99.90
27559;DHT22;15002;52.028;5.670;2022-12-29T03:53:33;13.20;99.90
27559;DHT22;15002;52.028;5.670;2022-12-29T03:55:59;13.20;99.90
27559;DHT22;15002;52.028;5.670;2022-12-29T03:58:25;13.20;99.90
27559;DHT22;15002;52.028;5.670;2022-12-29T04:00:50;13.10;99.90
27559;DHT22;15002;52.028;5.670;2022-12-29T04:03:16;13.10;99.90
27559;DHT22;15002;52.028;5.670;2022-12-29T04:05:41;13.20;99.90
27559;DHT22;15002;52.028;5.670;2022-12-29T04:08:07;13.20;99.90
27559;DHT22;15002;52.028;5.670;2022-12-29T04:10:33;13.00;99.90
27559;DHT22;15002;52.028;5.670;2022-12-29T04:12:58;13.10;99.90
27559;DHT22;15002;52.028;5.670;2022-12-29T04:15:24;13.10;99.90
27559;DHT22;15002;52.028;5.670;2022-12-29T04:17:51;13.00;99.90
27559;DHT22;15002;52.028;5.670;2022-12-29T04:20:17;13.00;99.90
27559;DHT22;15002;52.028;5.670;2022-12-29T04:23:02;13.10;99.90
27559;DHT22;15002;52.028;5.670;2022-12-29T04:25:28;13.00;99.90
27559;DHT22;15002;52.028;5.670;2022-12-29T04:27:54;13.00;99.90
27559;DHT22;15002;52.028;5.670;2022-12-29T04:30:19;13.10;99.90
27559;DHT22;15002;52.028;5.670;2022-12-29T04:32:45;13.10;99.90
27559;DHT22;15002;52.028;5.670;2022-12-29T04:35:11;13.10;99.90
27559;DHT22;15002;52.028;5.670;2022-12-29T04:37:36;13.20;99.90
27559;DHT22;15002;52.028;5.670;2022-12-29T04:40:02;13.20;99.90
27559;DHT22;15002;52.028;5.670;2022-12-29T04:42:27;13.00;99.90
27559;DHT22;15002;52.028;5.670;2022-12-29T04:44:53;13.00;99.90
27559;DHT22;15002;52.028;5.670;2022-12-29T04:47:19;12.90;99.90
27559;DHT22;15002;52.028;5.670;2022-12-29T04:49:44;12.90;99.90
27559;DHT22;15002;52.028;5.670;2022-12-29T04:52:10;12.80;99.90
27559;DHT22;15002;52.028;5.670;2022-12-29T04:54:36;12.90;99.90
27559;DHT22;15002;52.028;5.670;2022-12-29T04:57:02;12.70;99.90
27559;DHT22;15002;52.028;5.670;2022-12-29T04:59:27;12.90;99.90
27559;DHT22;15002;52.028;5.670;2022-12-29T05:01:53;12.90;99.90
27559;DHT22;15002;52.028;5.670;2022-12-29T05:04:18;13.00;99.90
27559;DHT22;15002;52.028;5.670;2022-12-29T05:06:44;12.90;99.90
27559;DHT22;15002;52.028;5.670;2022-12-29T05:09:10;12.80;99.90
27559;DHT22;15002;52.028;5.670;2022-12-29T05:11:35;13.00;99.90
27559;DHT22;15002;52.028;5.670;2022-12-29T05:14:01;13.20;99.90
27559;DHT22;15002;52.028;5.670;2022-12-29T05:16:26;13.10;99.90
27559;DHT22;15002;52.028;5.670;2022-12-29T05:18:52;12.90;99.90
27559;DHT22;15002;52.028;5.670;2022-12-29T05:21:18;12.90;99.90
27559;DHT22;15002;52.028;5.670;2022-12-29T05:23:43;12.90;99.90
27559;DHT22;15002;52.028;5.670;2022-12-29T05:26:09;12.90;99.90
27559;DHT22;15002;52.028;5.670;2022-12-29T05:28:34;12.80;99.90
27559;DHT22;15002;52.028;5.670;2022-12-29T05:31:00;12.60;99.90
27559;DHT22;15002;52.028;5.670;2022-12-29T05:33:25;12.60;99.90
27559;DHT22;15002;52.028;5.670;2022-12-29T05:35:51;12.70;99.90
27559;DHT22;15002;52.028;5.670;2022-12-29T05:38:17;12.70;99.90
27559;DHT22;15002;52.028;5.670;2022-12-29T05:40:43;12.70;99.90
27559;DHT22;15002;52.028;5.670;2022-12-29T05:43:09;12.60;99.90
27559;DHT22;15002;52.028;5.670;2022-12-29T05:45:36;12.50;99.90
27559;DHT22;15002;52.028;5.670;2022-12-29T05:48:03;12.40;99.90
27559;DHT22;15002;52.028;5.670;2022-12-29T05:50:28;12.50;99.90
27559;DHT22;15002;52.028;5.670;2022-12-29T05:52:54;12.70;99.90
27559;DHT22;15002;52.028;5.670;2022-12-29T05:55:20;12.70;99.90
27559;DHT22;15002;52.028;5.670;2022-12-29T05:57:45;12.70;99.90
27559;DHT22;15002;52.028;5.670;2022-12-29T06:00:12;12.80;99.90
27559;DHT22;15002;52.028;5.670;2022-12-29T06:02:37;12.80;99.90
27559;DHT22;15002;52.028;5.670;2022-12-29T06:05:03;12.80;99.90
27559;DHT22;15002;52.028;5.670;2022-12-29T06:07:29;12.70;99.90
27559;DHT22;15002;52.028;5.670;2022-12-29T06:09:54;12.60;99.90
27559;DHT22;15002;52.028;5.670;2022-12-29T06:12:20;12.60;99.90
27559;DHT22;15002;52.028;5.670;2022-12-29T06:14:46;12.60;99.90
27559;DHT22;15002;52.028;5.670;2022-12-29T06:17:11;12.80;99.90
27559;DHT22;15002;52.028;5.670;2022-12-29T06:19:37;12.80;99.90
27559;DHT22;15002;52.028;5.670;2022-12-29T06:22:02;12.70;99.90
27559;DHT22;15002;52.028;5.670;2022-12-29T06:24:28;12.60;99.90
27559;DHT22;15002;52.028;5.670;2022-12-29T06:26:54;12.70;99.90
27559;DHT22;15002;52.028;5.670;2022-12-29T06:29:19;12.70;99.90
27559;DHT22;15002;52.028;5.670;2022-12-29T06:31:46;12.80;99.90
27559;DHT22;15002;52.028;5.670;2022-12-29T06:34:12;12.60;99.90
27559;DHT22;15002;52.028;5.670;2022-12-29T06:36:38;12.70;99.90
27559;DHT22;15002;52.028;5.670;2022-12-29T06:39:04;12.80;99.90
27559;DHT22;15002;52.028;5.670;2022-12-29T06:41:29;12.90;99.90
27559;DHT22;15002;52.028;5.670;2022-12-29T06:43:55;12.90;99.90
27559;DHT22;15002;52.028;5.670;2022-12-29T06:46:21;12.80;99.90
27559;DHT22;15002;52.028;5.670;2022-12-29T06:48:46;12.70;99.90
27559;DHT22;15002;52.028;5.670;2022-12-29T06:51:12;12.70;99.90
27559;DHT22;15002;52.028;5.670;2022-12-29T06:53:38;12.70;99.90
27559;DHT22;15002;52.028;5.670;2022-12-29T06:56:04;12.40;99.90
27559;DHT22;15002;52.028;5.670;2022-12-29T06:58:30;12.50;99.90
27559;DHT22;15002;52.028;5.670;2022-12-29T07:00:55;12.60;99.90
27559;DHT22;15002;52.028;5.670;2022-12-29T07:03:21;12.30;99.90
27559;DHT22;15002;52.028;5.670;2022-12-29T07:05:46;12.20;99.90
27559;DHT22;15002;52.028;5.670;2022-12-29T07:08:12;12.20;99.90
27559;DHT22;15002;52.028;5.670;2022-12-29T07:10:38;11.90;99.90
27559;DHT22;15002;52.028;5.670;2022-12-29T07:13:03;12.10;99.90
27559;DHT22;15002;52.028;5.670;2022-12-29T07:15:29;12.00;99.90
27559;DHT22;15002;52.028;5.670;2022-12-29T07:17:55;12.00;99.90
27559;DHT22;15002;52.028;5.670;2022-12-29T07:20:20;11.80;99.90
27559;DHT22;15002;52.028;5.670;2022-12-29T07:22:46;11.60;99.90
27559;DHT22;15002;52.028;5.670;2022-12-29T07:25:12;11.70;99.90
27559;DHT22;15002;52.028;5.670;2022-12-29T07:27:38;12.10;99.90
27559;DHT22;15002;52.028;5.670;2022-12-29T07:30:04;12.10;99.90
27559;DHT22;15002;52.028;5.670;2022-12-29T07:32:33;12.00;99.90
27559;DHT22;15002;52.028;5.670;2022-12-29T07:34:59;12.10;99.90
27559;DHT22;15002;52.028;5.670;2022-12-29T07:37:24;12.10;99.90
27559;DHT22;15002;52.028;5.670;2022-12-29T07:39:50;12.20;99.90
27559;DHT22;15002;52.028;5.670;2022-12-29T07:42:16;12.20;99.90
27559;DHT22;15002;52.028;5.670;2022-12-29T07:44:41;12.10;99.90
27559;DHT22;15002;52.028;5.670;2022-12-29T07:47:07;12.10;99.90
27559;DHT22;15002;52.028;5.670;2022-12-29T07:49:33;12.00;99.90
27559;DHT22;15002;52.028;5.670;2022-12-29T07:51:58;11.90;99.90
27559;DHT22;15002;52.028;5.670;2022-12-29T07:54:24;11.70;99.90
27559;DHT22;15002;52.028;5.670;2022-12-29T07:56:50;11.60;99.90
27559;DHT22;15002;52.028;5.670;2022-12-29T07:59:15;11.70;99.90
27559;DHT22;15002;52.028;5.670;2022-12-29T08:01:41;11.80;99.90
27559;DHT22;15002;52.028;5.670;2022-12-29T08:04:06;11.90;99.90
27559;DHT22;15002;52.028;5.670;2022-12-29T08:06:32;11.90;99.90
27559;DHT22;15002;52.028;5.670;2022-12-29T08:08:58;11.80;99.90
27559;DHT22;15002;52.028;5.670;2022-12-29T08:11:25;11.80;99.90
27559;DHT22;15002;52.028;5.670;2022-12-29T08:13:51;12.00;99.90
27559;DHT22;15002;52.028;5.670;2022-12-29T08:16:16;12.10;99.90
27559;DHT22;15002;52.028;5.670;2022-12-29T08:18:42;12.20;99.90
27559;DHT22;15002;52.028;5.670;2022-12-29T08:21:08;12.20;99.90
27559;DHT22;15002;52.028;5.670;2022-12-29T08:23:33;12.40;99.90
27559;DHT22;15002;52.028;5.670;2022-12-29T08:26:00;12.50;99.90
27559;DHT22;15002;52.028;5.670;2022-12-29T08:28:27;12.50;99.90
27559;DHT22;15002;52.028;5.670;2022-12-29T08:30:53;12.30;99.90
27559;DHT22;15002;52.028;5.670;2022-12-29T08:33:19;12.30;99.90
27559;DHT22;15002;52.028;5.670;2022-12-29T08:35:45;12.30;99.90
27559;DHT22;15002;52.028;5.670;2022-12-29T08:38:10;12.40;99.90
27559;DHT22;15002;52.028;5.670;2022-12-29T08:40:39;12.50;99.90
27559;DHT22;15002;52.028;5.670;2022-12-29T08:43:05;12.50;99.90
27559;DHT22;15002;52.028;5.670;2022-12-29T08:45:31;12.70;99.90
27559;DHT22;15002;52.028;5.670;2022-12-29T08:47:56;12.60;99.90
27559;DHT22;15002;52.028;5.670;2022-12-29T08:50:22;12.60;99.90
27559;DHT22;15002;52.028;5.670;2022-12-29T08:52:48;12.50;99.90
27559;DHT22;15002;52.028;5.670;2022-12-29T08:55:14;12.50;99.90
27559;DHT22;15002;52.028;5.670;2022-12-29T08:57:39;12.50;99.90
27559;DHT22;15002;52.028;5.670;2022-12-29T09:00:06;12.50;99.90
27559;DHT22;15002;52.028;5.670;2022-12-29T09:02:31;12.70;99.90
27559;DHT22;15002;52.028;5.670;2022-12-29T09:04:57;12.80;99.90
27559;DHT22;15002;52.028;5.670;2022-12-29T09:07:23;12.90;99.90
27559;DHT22;15002;52.028;5.670;2022-12-29T09:09:49;12.70;99.90
27559;DHT22;15002;52.028;5.670;2022-12-29T09:12:16;12.80;99.90
27559;DHT22;15002;52.028;5.670;2022-12-29T09:14:42;12.70;99.90
27559;DHT22;15002;52.028;5.670;2022-12-29T09:17:09;12.50;99.90
27559;DHT22;15002;52.028;5.670;2022-12-29T09:19:54;12.40;99.90
27559;DHT22;15002;52.028;5.670;2022-12-29T09:22:19;12.40;99.90
27559;DHT22;15002;52.028;5.670;2022-12-29T09:24:45;12.40;99.90
27559;DHT22;15002;52.028;5.670;2022-12-29T09:27:11;12.50;99.90
27559;DHT22;15002;52.028;5.670;2022-12-29T09:29:36;12.50;99.90
27559;DHT22;15002;52.028;5.670;2022-12-29T09:32:02;12.60;99.90
27559;DHT22;15002;52.028;5.670;2022-12-29T09:34:29;12.50;99.90
27559;DHT22;15002;52.028;5.670;2022-12-29T09:36:54;12.60;99.90
27559;DHT22;15002;52.028;5.670;2022-12-29T09:39:22;12.30;99.90
27559;DHT22;15002;52.028;5.670;2022-12-29T09:42:00;12.40;99.90
27559;DHT22;15002;52.028;5.670;2022-12-29T09:47:19;12.30;99.90
27559;DHT22;15002;52.028;5.670;2022-12-29T09:49:47;12.20;99.90
27559;DHT22;15002;52.028;5.670;2022-12-29T09:52:36;12.20;99.90
27559;DHT22;15002;52.028;5.670;2022-12-29T09:55:19;12.10;99.90
27559;DHT22;15002;52.028;5.670;2022-12-29T09:57:59;12.40;99.90
27559;DHT22;15002;52.028;5.670;2022-12-29T10:00:41;12.20;99.90
27559;DHT22;15002;52.028;5.670;2022-12-29T10:03:22;12.00;99.90
27559;DHT22;15002;52.028;5.670;2022-12-29T10:06:15;12.00;99.90
27559;DHT22;15002;52.028;5.670;2022-12-29T10:16:53;11.80;99.90
27559;DHT22;15002;52.028;5.670;2022-12-29T10:25:19;11.90;99.90
27559;DHT22;15002;52.028;5.670;2022-12-29T10:27:49;11.90;99.90
27559;DHT22;15002;52.028;5.670;2022-12-29T10:30:16;11.80;99.90
27559;DHT22;15002;52.028;5.670;2022-12-29T10:33:07;11.80;99.90
27559;DHT22;15002;52.028;5.670;2022-12-29T10:35:37;11.80;99.90
27559;DHT22;15002;52.028;5.670;2022-12-29T10:43:28;12.10;99.90
27559;DHT22;15002;52.028;5.670;2022-12-29T10:46:02;11.90;99.90
27559;DHT22;15002;52.028;5.670;2022-12-29T10:48:34;11.80;99.90
27559;DHT22;15002;52.028;5.670;2022-12-29T10:51:02;11.70;99.90
27559;DHT22;15002;52.028;5.670;2022-12-29T10:53:51;11.60;99.90
27559;DHT22;15002;52.028;5.670;2022-12-29T10:59:30;11.80;99.90
27559;DHT22;15002;52.028;5.670;2022-12-29T11:04:28;11.90;99.90
27559;DHT22;15002;52.028;5.670;2022-12-29T11:06:59;11.80;99.90
27559;DHT22;15002;52.028;5.670;2022-12-29T11:09:32;11.80;99.90
27559;DHT22;15002;52.028;5.670;2022-12-29T11:11:58;11.80;99.90
27559;DHT22;15002;52.028;5.670;2022-12-29T11:14:29;11.80;99.90
27559;DHT22;15002;52.028;5.670;2022-12-29T11:17:00;11.90;99.90
27559;DHT22;15002;52.028;5.670;2022-12-29T11:19:29;12.00;99.90
27559;DHT22;15002;52.028;5.670;2022-12-29T11:22:25;11.80;99.90
27559;DHT22;15002;52.028;5.670;2022-12-29T11:24:52;12.00;99.90
27559;DHT22;15002;52.028;5.670;2022-12-29T11:27:21;12.10;99.90
27559;DHT22;15002;52.028;5.670;2022-12-29T11:29:49;12.00;99.90
27559;DHT22;15002;52.028;5.670;2022-12-29T11:32:20;12.10;99.90
27559;DHT22;15002;52.028;5.670;2022-12-29T11:34:46;12.00;99.90
27559;DHT22;15002;52.028;5.670;2022-12-29T11:39:59;12.00;99.90
27559;DHT22;15002;52.028;5.670;2022-12-29T11:42:39;12.10;99.90
27559;DHT22;15002;52.028;5.670;2022-12-29T11:45:19;12.10;99.90
27559;DHT22;15002;52.028;5.670;2022-12-29T11:47:52;11.70;99.90
27559;DHT22;15002;52.028;5.670;2022-12-29T11:50:24;11.80;99.90
27559;DHT22;15002;52.028;5.670;2022-12-29T11:52:57;11.90;99.90
27559;DHT22;15002;52.028;5.670;2022-12-29T11:55:25;11.90;99.90
27559;DHT22;15002;52.028;5.670;2022-12-29T11:57:53;12.00;99.90
27559;DHT22;15002;52.028;5.670;2022-12-29T12:00:24;11.90;99.90
27559;DHT22;15002;52.028;5.670;2022-12-29T12:03:19;12.10;99.90
27559;DHT22;15002;52.028;5.670;2022-12-29T12:08:36;12.60;99.90
27559;DHT22;15002;52.028;5.670;2022-12-29T12:13:37;12.30;99.90
27559;DHT22;15002;52.028;5.670;2022-12-29T12:16:21;12.10;99.90
27559;DHT22;15002;52.028;5.670;2022-12-29T12:18:57;12.10;99.90
27559;DHT22;15002;52.028;5.670;2022-12-29T12:21:34;12.20;99.90
27559;DHT22;15002;52.028;5.670;2022-12-29T12:26:35;12.30;99.90
27559;DHT22;15002;52.028;5.670;2022-12-29T12:32:01;12.50;99.90
27559;DHT22;15002;52.028;5.670;2022-12-29T12:34:36;12.40;99.90
27559;DHT22;15002;52.028;5.670;2022-12-29T12:37:33;12.50;99.90
27559;DHT22;15002;52.028;5.670;2022-12-29T12:43:10;12.60;99.90
27559;DHT22;15002;52.028;5.670;2022-12-29T12:51:14;12.40;99.90
27559;DHT22;15002;52.028;5.670;2022-12-29T13:08:01;12.60;99.90
27559;DHT22;15002;52.028;5.670;2022-12-29T13:10:49;12.60;99.90
27559;DHT22;15002;52.028;5.670;2022-12-29T13:16:28;12.40;99.90
27559;DHT22;15002;52.028;5.670;2022-12-29T13:35:55;12.50;99.90
27559;DHT22;15002;52.028;5.670;2022-12-29T13:41:04;12.60;99.90
27559;DHT22;15002;52.028;5.670;2022-12-29T13:43:33;12.60;99.90
27559;DHT22;15002;52.028;5.670;2022-12-29T13:46:07;12.50;99.90
27559;DHT22;15002;52.028;5.670;2022-12-29T13:48:39;12.50;99.90
27559;DHT22;15002;52.028;5.670;2022-12-29T13:51:08;12.60;99.90
27559;DHT22;15002;52.028;5.670;2022-12-29T13:56:33;12.50;99.90
27559;DHT22;15002;52.028;5.670;2022-12-29T14:04:34;12.50;99.90
27559;DHT22;15002;52.028;5.670;2022-12-29T14:07:05;12.50;99.90
27559;DHT22;15002;52.028;5.670;2022-12-29T14:09:41;12.50;99.90
27559;DHT22;15002;52.028;5.670;2022-12-29T14:12:42;12.50;99.90
27559;DHT22;15002;52.028;5.670;2022-12-29T14:17:35;12.40;99.90
27559;DHT22;15002;52.028;5.670;2022-12-29T14:20:02;12.30;99.90
27559;DHT22;15002;52.028;5.670;2022-12-29T14:22:29;12.20;99.90
27559;DHT22;15002;52.028;5.670;2022-12-29T14:24:55;12.40;99.90
27559;DHT22;15002;52.028;5.670;2022-12-29T14:29:50;12.50;99.90
27559;DHT22;15002;52.028;5.670;2022-12-29T14:34:59;12.10;99.90
27559;DHT22;15002;52.028;5.670;2022-12-29T14:37:33;12.00;99.90
27559;DHT22;15002;52.028;5.670;2022-12-29T14:40:24;12.00;99.90
27559;DHT22;15002;52.028;5.670;2022-12-29T14:42:55;12.00;99.90
27559;DHT22;15002;52.028;5.670;2022-12-29T14:45:28;12.00;99.90
27559;DHT22;15002;52.028;5.670;2022-12-29T14:47:55;12.00;99.90
27559;DHT22;15002;52.028;5.670;2022-12-29T14:52:56;12.20;99.90
27559;DHT22;15002;52.028;5.670;2022-12-29T14:55:38;12.20;99.90
27559;DHT22;15002;52.028;5.670;2022-12-29T14:58:12;12.10;99.90
27559;DHT22;15002;52.028;5.670;2022-12-29T15:00:40;12.10;99.90
27559;DHT22;15002;52.028;5.670;2022-12-29T15:03:18;12.20;99.90
27559;DHT22;15002;52.028;5.670;2022-12-29T15:05:48;12.10;99.90
27559;DHT22;15002;52.028;5.670;2022-12-29T15:08:25;12.10;99.90
27559;DHT22;15002;52.028;5.670;2022-12-29T15:11:03;11.90;99.90
27559;DHT22;15002;52.028;5.670;2022-12-29T15:13:36;12.00;99.90
27559;DHT22;15002;52.028;5.670;2022-12-29T15:16:02;12.00;99.90
27559;DHT22;15002;52.028;5.670;2022-12-29T15:18:32;11.90;99.90
27559;DHT22;15002;52.028;5.670;2022-12-29T15:21:06;11.80;99.90
27559;DHT22;15002;52.028;5.670;2022-12-29T15:23:34;11.90;99.90
27559;DHT22;15002;52.028;5.670;2022-12-29T15:26:07;11.80;99.90
27559;DHT22;15002;52.028;5.670;2022-12-29T15:28:46;11.80;99.90
27559;DHT22;15002;52.028;5.670;2022-12-29T15:31:23;11.80;99.90
27559;DHT22;15002;52.028;5.670;2022-12-29T15:33:52;11.90;99.90
27559;DHT22;15002;52.028;5.670;2022-12-29T15:36:21;11.90;99.90
27559;DHT22;15002;52.028;5.670;2022-12-29T15:38:47;11.90;99.90
27559;DHT22;15002;52.028;5.670;2022-12-29T15:41:34;11.80;99.90
27559;DHT22;15002;52.028;5.670;2022-12-29T15:44:25;11.80;99.90
27559;DHT22;15002;52.028;5.670;2022-12-29T15:46:51;11.80;99.90
27559;DHT22;15002;52.028;5.670;2022-12-29T15:49:17;11.90;99.90
27559;DHT22;15002;52.028;5.670;2022-12-29T15:51:44;11.70;99.90
27559;DHT22;15002;52.028;5.670;2022-12-29T15:54:19;11.80;99.90
27559;DHT22;15002;52.028;5.670;2022-12-29T15:56:46;11.80;99.90
27559;DHT22;15002;52.028;5.670;2022-12-29T15:59:28;11.80;99.90
27559;DHT22;15002;52.028;5.670;2022-12-29T16:01:54;11.70;99.90
27559;DHT22;15002;52.028;5.670;2022-12-29T16:04:21;11.90;99.90
27559;DHT22;15002;52.028;5.670;2022-12-29T16:07:00;11.80;99.90
27559;DHT22;15002;52.028;5.670;2022-12-29T16:09:43;11.90;99.90
27559;DHT22;15002;52.028;5.670;2022-12-29T16:12:24;11.80;99.90
27559;DHT22;15002;52.028;5.670;2022-12-29T16:14:58;11.70;99.90
27559;DHT22;15002;52.028;5.670;2022-12-29T16:17:27;11.80;99.90
27559;DHT22;15002;52.028;5.670;2022-12-29T16:19:59;11.80;99.90
27559;DHT22;15002;52.028;5.670;2022-12-29T16:22:34;11.90;99.90
27559;DHT22;15002;52.028;5.670;2022-12-29T16:25:04;11.90;99.90
27559;DHT22;15002;52.028;5.670;2022-12-29T16:27:37;11.90;99.90
27559;DHT22;15002;52.028;5.670;2022-12-29T16:30:07;11.90;99.90
27559;DHT22;15002;52.028;5.670;2022-12-29T16:32:33;11.80;99.90
27559;DHT22;15002;52.028;5.670;2022-12-29T16:35:12;11.70;99.90
27559;DHT22;15002;52.028;5.670;2022-12-29T16:37:39;11.70;99.90
27559;DHT22;15002;52.028;5.670;2022-12-29T16:48:09;11.90;99.90
27559;DHT22;15002;52.028;5.670;2022-12-29T16:50:43;11.80;99.90
27559;DHT22;15002;52.028;5.670;2022-12-29T16:53:23;11.80;99.90
27559;DHT22;15002;52.028;5.670;2022-12-29T16:55:51;11.70;99.90
27559;DHT22;15002;52.028;5.670;2022-12-29T16:58:21;11.60;99.90
27559;DHT22;15002;52.028;5.670;2022-12-29T17:00:48;11.50;99.90
27559;DHT22;15002;52.028;5.670;2022-12-29T17:03:14;11.50;99.90
27559;DHT22;15002;52.028;5.670;2022-12-29T17:05:40;11.50;99.90
27559;DHT22;15002;52.028;5.670;2022-12-29T17:08:39;11.60;99.90
27559;DHT22;15002;52.028;5.670;2022-12-29T17:11:05;11.60;99.90
27559;DHT22;15002;52.028;5.670;2022-12-29T17:13:52;11.40;99.90
27559;DHT22;15002;52.028;5.670;2022-12-29T17:16:18;11.30;99.90
27559;DHT22;15002;52.028;5.670;2022-12-29T17:18:43;11.50;99.90
27559;DHT22;15002;52.028;5.670;2022-12-29T17:21:09;11.60;99.90
27559;DHT22;15002;52.028;5.670;2022-12-29T17:23:34;11.40;99.90
27559;DHT22;15002;52.028;5.670;2022-12-29T17:26:01;11.50;99.90
27559;DHT22;15002;52.028;5.670;2022-12-29T17:28:29;11.30;99.90
27559;DHT22;15002;52.028;5.670;2022-12-29T17:31:02;11.40;99.90
27559;DHT22;15002;52.028;5.670;2022-12-29T17:33:32;11.40;99.90
27559;DHT22;15002;52.028;5.670;2022-12-29T17:35:59;11.30;99.90
27559;DHT22;15002;52.028;5.670;2022-12-29T17:38:28;11.30;99.90
27559;DHT22;15002;52.028;5.670;2022-12-29T17:40:54;11.30;99.90
27559;DHT22;15002;52.028;5.670;2022-12-29T17:43:20;11.30;99.90
27559;DHT22;15002;52.028;5.670;2022-12-29T17:45:56;11.30;99.90
27559;DHT22;15002;52.028;5.670;2022-12-29T17:48:23;11.40;99.90
27559;DHT22;15002;52.028;5.670;2022-12-29T17:50:51;11.30;99.90
27559;DHT22;15002;52.028;5.670;2022-12-29T17:53:23;11.40;99.90
27559;DHT22;15002;52.028;5.670;2022-12-29T17:55:50;11.30;99.90
27559;DHT22;15002;52.028;5.670;2022-12-29T17:58:24;11.30;99.90
27559;DHT22;15002;52.028;5.670;2022-12-29T18:00:53;11.40;99.90
27559;DHT22;15002;52.028;5.670;2022-12-29T18:03:31;11.20;99.90
27559;DHT22;15002;52.028;5.670;2022-12-29T18:05:57;11.30;99.90
27559;DHT22;15002;52.028;5.670;2022-12-29T18:08:23;11.40;99.90
27559;DHT22;15002;52.028;5.670;2022-12-29T18:10:53;11.20;99.90
27559;DHT22;15002;52.028;5.670;2022-12-29T18:13:27;11.10;99.90
27559;DHT22;15002;52.028;5.670;2022-12-29T18:15:54;11.20;99.90